sensor_id;sensor_type;location;lat;lon;timestamp;P1;durP1;ratioP1;P2;durP2;ratioP2
59734;SDS011;64362;45.620;4.920;2022-12-01T00:00:46;10.88;;;5.82;;
59734;SDS011;64362;45.620;4.920;2022-12-01T00:03:12;9.68;;;4.90;;
59734;SDS011;64362;45.620;4.920;2022-12-01T00:05:38;9.98;;;5.40;;
59734;SDS011;64362;45.620;4.920;2022-12-01T00:08:03;9.43;;;5.00;;
59734;SDS011;64362;45.620;4.920;2022-12-01T00:10:30;9.85;;;5.03;;
59734;SDS011;64362;45.620;4.920;2022-12-01T00:12:57;7.97;;;5.00;;
59734;SDS011;64362;45.620;4.920;2022-12-01T00:15:25;8.13;;;4.90;;
59734;SDS011;64362;45.620;4.920;2022-12-01T00:17:51;8.05;;;4.60;;
59734;SDS011;64362;45.620;4.920;2022-12-01T00:20:16;10.65;;;5.07;;
59734;SDS011;64362;45.620;4.920;2022-12-01T00:22:46;8.90;;;5.13;;
59734;SDS011;64362;45.620;4.920;2022-12-01T00:25:12;8.88;;;5.15;;
59734;SDS011;64362;45.620;4.920;2022-12-01T00:27:39;7.88;;;4.80;;
59734;SDS011;64362;45.620;4.920;2022-12-01T00:30:05;7.03;;;4.55;;
59734;SDS011;64362;45.620;4.920;2022-12-01T00:32:33;7.40;;;4.70;;
59734;SDS011;64362;45.620;4.920;2022-12-01T00:34:58;8.55;;;5.10;;
59734;SDS011;64362;45.620;4.920;2022-12-01T00:37:24;7.30;;;4.88;;
59734;SDS011;64362;45.620;4.920;2022-12-01T00:39:49;7.68;;;4.55;;
59734;SDS011;64362;45.620;4.920;2022-12-01T00:42:15;7.50;;;5.15;;
59734;SDS011;64362;45.620;4.920;2022-12-01T00:44:40;7.05;;;4.38;;
59734;SDS011;64362;45.620;4.920;2022-12-01T00:47:05;7.20;;;4.53;;
59734;SDS011;64362;45.620;4.920;2022-12-01T00:49:31;7.60;;;4.38;;
59734;SDS011;64362;45.620;4.920;2022-12-01T00:51:56;7.30;;;4.40;;
59734;SDS011;64362;45.620;4.920;2022-12-01T00:54:22;7.10;;;4.97;;
59734;SDS011;64362;45.620;4.920;2022-12-01T00:56:47;8.07;;;4.57;;
59734;SDS011;64362;45.620;4.920;2022-12-01T00:59:13;8.43;;;4.68;;
59734;SDS011;64362;45.620;4.920;2022-12-01T01:01:38;6.35;;;4.70;;
59734;SDS011;64362;45.620;4.920;2022-12-01T01:04:04;5.47;;;4.03;;
59734;SDS011;64362;45.620;4.920;2022-12-01T01:06:29;6.82;;;4.28;;
59734;SDS011;64362;45.620;4.920;2022-12-01T01:08:55;6.40;;;4.30;;
59734;SDS011;64362;45.620;4.920;2022-12-01T01:11:20;9.45;;;4.35;;
59734;SDS011;64362;45.620;4.920;2022-12-01T01:13:46;6.97;;;4.57;;
59734;SDS011;64362;45.620;4.920;2022-12-01T01:18:38;7.93;;;4.45;;
59734;SDS011;64362;45.620;4.920;2022-12-01T01:21:04;7.55;;;4.28;;
59734;SDS011;64362;45.620;4.920;2022-12-01T01:23:31;7.25;;;4.55;;
59734;SDS011;64362;45.620;4.920;2022-12-01T01:26:01;6.60;;;4.20;;
59734;SDS011;64362;45.620;4.920;2022-12-01T01:28:36;7.78;;;4.72;;
59734;SDS011;64362;45.620;4.920;2022-12-01T01:31:05;7.05;;;4.28;;
59734;SDS011;64362;45.620;4.920;2022-12-01T01:33:32;5.85;;;4.07;;
59734;SDS011;64362;45.620;4.920;2022-12-01T01:35:58;6.68;;;3.85;;
59734;SDS011;64362;45.620;4.920;2022-12-01T01:38:24;6.80;;;4.63;;
59734;SDS011;64362;45.620;4.920;2022-12-01T01:40:50;7.18;;;4.55;;
59734;SDS011;64362;45.620;4.920;2022-12-01T01:43:16;6.78;;;4.32;;
59734;SDS011;64362;45.620;4.920;2022-12-01T01:46:00;6.43;;;4.50;;
59734;SDS011;64362;45.620;4.920;2022-12-01T01:48:25;5.97;;;3.83;;
59734;SDS011;64362;45.620;4.920;2022-12-01T01:50:51;6.00;;;4.20;;
59734;SDS011;64362;45.620;4.920;2022-12-01T01:53:16;8.85;;;4.90;;
59734;SDS011;64362;45.620;4.920;2022-12-01T01:55:42;6.97;;;4.28;;
59734;SDS011;64362;45.620;4.920;2022-12-01T01:58:07;7.28;;;4.15;;
59734;SDS011;64362;45.620;4.920;2022-12-01T02:00:34;6.25;;;4.00;;
59734;SDS011;64362;45.620;4.920;2022-12-01T02:03:00;6.03;;;4.50;;
59734;SDS011;64362;45.620;4.920;2022-12-01T02:05:27;6.60;;;4.15;;
59734;SDS011;64362;45.620;4.920;2022-12-01T02:07:55;7.70;;;4.05;;
59734;SDS011;64362;45.620;4.920;2022-12-01T02:10:23;8.20;;;4.57;;
59734;SDS011;64362;45.620;4.920;2022-12-01T02:26:48;7.15;;;4.30;;
59734;SDS011;64362;45.620;4.920;2022-12-01T02:32:18;6.13;;;4.10;;
59734;SDS011;64362;45.620;4.920;2022-12-01T02:34:53;5.68;;;4.15;;
59734;SDS011;64362;45.620;4.920;2022-12-01T02:40:25;6.07;;;4.20;;
59734;SDS011;64362;45.620;4.920;2022-12-01T02:43:06;6.70;;;4.10;;
59734;SDS011;64362;45.620;4.920;2022-12-01T02:48:27;6.57;;;4.15;;
59734;SDS011;64362;45.620;4.920;2022-12-01T02:50:55;6.03;;;3.92;;
59734;SDS011;64362;45.620;4.920;2022-12-01T02:53:22;6.80;;;4.38;;
59734;SDS011;64362;45.620;4.920;2022-12-01T02:55:49;5.22;;;3.75;;
59734;SDS011;64362;45.620;4.920;2022-12-01T02:58:16;5.85;;;3.70;;
59734;SDS011;64362;45.620;4.920;2022-12-01T03:00:44;6.82;;;3.95;;
59734;SDS011;64362;45.620;4.920;2022-12-01T03:03:23;6.00;;;4.13;;
59734;SDS011;64362;45.620;4.920;2022-12-01T03:11:42;5.43;;;3.97;;
59734;SDS011;64362;45.620;4.920;2022-12-01T03:17:09;5.93;;;3.70;;
59734;SDS011;64362;45.620;4.920;2022-12-01T03:19:40;5.20;;;3.75;;
59734;SDS011;64362;45.620;4.920;2022-12-01T03:22:16;6.65;;;3.95;;
59734;SDS011;64362;45.620;4.920;2022-12-01T03:24:47;6.07;;;3.70;;
59734;SDS011;64362;45.620;4.920;2022-12-01T03:27:13;6.40;;;3.80;;
59734;SDS011;64362;45.620;4.920;2022-12-01T03:29:44;5.45;;;3.70;;
59734;SDS011;64362;45.620;4.920;2022-12-01T03:32:12;6.63;;;3.70;;
59734;SDS011;64362;45.620;4.920;2022-12-01T03:37:35;6.13;;;4.00;;
59734;SDS011;64362;45.620;4.920;2022-12-01T03:40:05;5.53;;;3.85;;
59734;SDS011;64362;45.620;4.920;2022-12-01T03:42:37;5.47;;;3.70;;
59734;SDS011;64362;45.620;4.920;2022-12-01T03:45:09;5.25;;;3.35;;
59734;SDS011;64362;45.620;4.920;2022-12-01T03:47:38;5.40;;;3.63;;
59734;SDS011;64362;45.620;4.920;2022-12-01T03:50:04;5.95;;;3.70;;
59734;SDS011;64362;45.620;4.920;2022-12-01T03:52:41;5.40;;;3.75;;
59734;SDS011;64362;45.620;4.920;2022-12-01T03:57:44;4.90;;;3.58;;
59734;SDS011;64362;45.620;4.920;2022-12-01T04:00:12;4.97;;;3.60;;
59734;SDS011;64362;45.620;4.920;2022-12-01T04:02:38;4.72;;;3.50;;
59734;SDS011;64362;45.620;4.920;2022-12-01T04:05:05;6.38;;;3.85;;
59734;SDS011;64362;45.620;4.920;2022-12-01T04:07:33;4.30;;;3.40;;
59734;SDS011;64362;45.620;4.920;2022-12-01T04:09:59;5.05;;;3.28;;
59734;SDS011;64362;45.620;4.920;2022-12-01T04:12:25;5.18;;;3.28;;
59734;SDS011;64362;45.620;4.920;2022-12-01T04:14:54;6.53;;;3.60;;
59734;SDS011;64362;45.620;4.920;2022-12-01T04:17:21;4.95;;;3.53;;
59734;SDS011;64362;45.620;4.920;2022-12-01T04:19:46;6.15;;;4.13;;
59734;SDS011;64362;45.620;4.920;2022-12-01T04:22:11;5.38;;;3.38;;
59734;SDS011;64362;45.620;4.920;2022-12-01T04:24:37;5.10;;;3.92;;
59734;SDS011;64362;45.620;4.920;2022-12-01T04:27:03;5.60;;;3.65;;
59734;SDS011;64362;45.620;4.920;2022-12-01T04:29:28;4.45;;;3.22;;
59734;SDS011;64362;45.620;4.920;2022-12-01T04:31:54;5.88;;;3.53;;
59734;SDS011;64362;45.620;4.920;2022-12-01T04:34:19;5.97;;;4.15;;
59734;SDS011;64362;45.620;4.920;2022-12-01T04:36:45;6.00;;;3.47;;
59734;SDS011;64362;45.620;4.920;2022-12-01T04:39:10;5.05;;;3.30;;
59734;SDS011;64362;45.620;4.920;2022-12-01T04:41:35;5.38;;;3.50;;
59734;SDS011;64362;45.620;4.920;2022-12-01T04:44:01;4.93;;;3.53;;
59734;SDS011;64362;45.620;4.920;2022-12-01T04:46:26;5.65;;;3.58;;
59734;SDS011;64362;45.620;4.920;2022-12-01T04:48:52;5.93;;;3.90;;
59734;SDS011;64362;45.620;4.920;2022-12-01T04:51:17;5.57;;;3.95;;
59734;SDS011;64362;45.620;4.920;2022-12-01T04:53:43;5.07;;;3.58;;
59734;SDS011;64362;45.620;4.920;2022-12-01T04:56:08;4.93;;;3.90;;
59734;SDS011;64362;45.620;4.920;2022-12-01T04:58:35;5.85;;;3.85;;
59734;SDS011;64362;45.620;4.920;2022-12-01T05:01:02;8.77;;;3.70;;
59734;SDS011;64362;45.620;4.920;2022-12-01T05:03:29;4.88;;;3.53;;
59734;SDS011;64362;45.620;4.920;2022-12-01T05:06:04;5.40;;;3.20;;
59734;SDS011;64362;45.620;4.920;2022-12-01T05:08:31;5.22;;;3.38;;
59734;SDS011;64362;45.620;4.920;2022-12-01T05:10:58;6.47;;;3.58;;
59734;SDS011;64362;45.620;4.920;2022-12-01T05:13:24;5.28;;;3.53;;
59734;SDS011;64362;45.620;4.920;2022-12-01T05:15:50;5.82;;;3.45;;
59734;SDS011;64362;45.620;4.920;2022-12-01T05:18:16;5.30;;;3.83;;
59734;SDS011;64362;45.620;4.920;2022-12-01T05:20:41;5.05;;;3.50;;
59734;SDS011;64362;45.620;4.920;2022-12-01T05:23:22;4.82;;;3.35;;
59734;SDS011;64362;45.620;4.920;2022-12-01T05:25:49;4.97;;;3.78;;
59734;SDS011;64362;45.620;4.920;2022-12-01T05:28:14;4.82;;;3.28;;
59734;SDS011;64362;45.620;4.920;2022-12-01T05:30:40;4.50;;;3.40;;
59734;SDS011;64362;45.620;4.920;2022-12-01T05:33:05;5.38;;;3.55;;
59734;SDS011;64362;45.620;4.920;2022-12-01T05:35:34;4.68;;;3.00;;
59734;SDS011;64362;45.620;4.920;2022-12-01T05:37:59;4.63;;;3.33;;
59734;SDS011;64362;45.620;4.920;2022-12-01T05:40:25;5.63;;;3.70;;
59734;SDS011;64362;45.620;4.920;2022-12-01T05:42:50;5.80;;;3.97;;
59734;SDS011;64362;45.620;4.920;2022-12-01T05:45:16;7.28;;;3.55;;
59734;SDS011;64362;45.620;4.920;2022-12-01T05:47:41;4.65;;;3.42;;
59734;SDS011;64362;45.620;4.920;2022-12-01T05:50:07;4.55;;;3.67;;
59734;SDS011;64362;45.620;4.920;2022-12-01T05:52:33;5.25;;;3.40;;
59734;SDS011;64362;45.620;4.920;2022-12-01T05:54:59;4.82;;;3.33;;
59734;SDS011;64362;45.620;4.920;2022-12-01T05:57:25;6.10;;;3.55;;
59734;SDS011;64362;45.620;4.920;2022-12-01T05:59:51;4.78;;;3.22;;
59734;SDS011;64362;45.620;4.920;2022-12-01T06:02:16;4.93;;;3.45;;
59734;SDS011;64362;45.620;4.920;2022-12-01T06:04:42;6.63;;;3.88;;
59734;SDS011;64362;45.620;4.920;2022-12-01T06:07:07;4.40;;;3.00;;
59734;SDS011;64362;45.620;4.920;2022-12-01T06:09:33;5.47;;;3.35;;
59734;SDS011;64362;45.620;4.920;2022-12-01T06:11:58;4.63;;;3.10;;
59734;SDS011;64362;45.620;4.920;2022-12-01T06:14:24;6.65;;;3.97;;
59734;SDS011;64362;45.620;4.920;2022-12-01T06:16:49;5.75;;;3.58;;
59734;SDS011;64362;45.620;4.920;2022-12-01T06:19:15;5.57;;;3.50;;
59734;SDS011;64362;45.620;4.920;2022-12-01T06:21:40;4.55;;;3.50;;
59734;SDS011;64362;45.620;4.920;2022-12-01T06:24:06;4.40;;;3.38;;
59734;SDS011;64362;45.620;4.920;2022-12-01T06:26:31;6.10;;;3.38;;
59734;SDS011;64362;45.620;4.920;2022-12-01T06:28:57;5.47;;;3.60;;
59734;SDS011;64362;45.620;4.920;2022-12-01T06:31:22;5.97;;;3.85;;
59734;SDS011;64362;45.620;4.920;2022-12-01T06:33:48;14.57;;;9.05;;
59734;SDS011;64362;45.620;4.920;2022-12-01T06:36:13;15.95;;;10.40;;
59734;SDS011;64362;45.620;4.920;2022-12-01T06:38:39;13.85;;;9.32;;
59734;SDS011;64362;45.620;4.920;2022-12-01T06:41:04;20.17;;;11.23;;
59734;SDS011;64362;45.620;4.920;2022-12-01T06:43:30;16.35;;;9.23;;
59734;SDS011;64362;45.620;4.920;2022-12-01T06:45:55;12.73;;;7.28;;
59734;SDS011;64362;45.620;4.920;2022-12-01T06:48:21;13.52;;;8.05;;
59734;SDS011;64362;45.620;4.920;2022-12-01T06:50:47;16.20;;;7.68;;
59734;SDS011;64362;45.620;4.920;2022-12-01T06:53:12;12.55;;;7.88;;
59734;SDS011;64362;45.620;4.920;2022-12-01T06:55:38;13.27;;;7.45;;
59734;SDS011;64362;45.620;4.920;2022-12-01T06:58:04;12.02;;;6.57;;
59734;SDS011;64362;45.620;4.920;2022-12-01T07:00:29;12.57;;;6.95;;
59734;SDS011;64362;45.620;4.920;2022-12-01T07:02:55;15.10;;;6.85;;
59734;SDS011;64362;45.620;4.920;2022-12-01T07:05:20;10.07;;;6.65;;
59734;SDS011;64362;45.620;4.920;2022-12-01T07:07:46;10.10;;;6.07;;
59734;SDS011;64362;45.620;4.920;2022-12-01T07:10:11;12.57;;;5.93;;
59734;SDS011;64362;45.620;4.920;2022-12-01T07:12:37;10.65;;;5.80;;
59734;SDS011;64362;45.620;4.920;2022-12-01T07:15:04;11.38;;;5.85;;
59734;SDS011;64362;45.620;4.920;2022-12-01T07:17:32;9.10;;;5.53;;
59734;SDS011;64362;45.620;4.920;2022-12-01T07:19:58;10.88;;;5.72;;
59734;SDS011;64362;45.620;4.920;2022-12-01T07:22:23;8.02;;;5.22;;
59734;SDS011;64362;45.620;4.920;2022-12-01T07:24:49;10.50;;;4.95;;
59734;SDS011;64362;45.620;4.920;2022-12-01T07:27:14;9.20;;;5.53;;
59734;SDS011;64362;45.620;4.920;2022-12-01T07:29:40;9.18;;;5.30;;
59734;SDS011;64362;45.620;4.920;2022-12-01T07:32:05;7.28;;;4.85;;
59734;SDS011;64362;45.620;4.920;2022-12-01T07:34:31;8.38;;;5.07;;
59734;SDS011;64362;45.620;4.920;2022-12-01T07:36:56;7.75;;;4.53;;
59734;SDS011;64362;45.620;4.920;2022-12-01T07:39:22;8.95;;;5.05;;
59734;SDS011;64362;45.620;4.920;2022-12-01T07:41:47;8.13;;;4.95;;
59734;SDS011;64362;45.620;4.920;2022-12-01T07:44:13;7.13;;;4.32;;
59734;SDS011;64362;45.620;4.920;2022-12-01T07:46:38;6.72;;;4.95;;
59734;SDS011;64362;45.620;4.920;2022-12-01T07:49:05;8.77;;;4.97;;
59734;SDS011;64362;45.620;4.920;2022-12-01T07:51:31;7.97;;;4.30;;
59734;SDS011;64362;45.620;4.920;2022-12-01T07:54:00;8.30;;;4.28;;
59734;SDS011;64362;45.620;4.920;2022-12-01T07:56:26;7.60;;;4.30;;
59734;SDS011;64362;45.620;4.920;2022-12-01T07:58:51;7.88;;;4.55;;
59734;SDS011;64362;45.620;4.920;2022-12-01T08:01:18;6.88;;;4.75;;
59734;SDS011;64362;45.620;4.920;2022-12-01T08:03:46;7.28;;;4.60;;
59734;SDS011;64362;45.620;4.920;2022-12-01T08:06:17;7.25;;;4.75;;
59734;SDS011;64362;45.620;4.920;2022-12-01T08:08:43;7.15;;;4.40;;
59734;SDS011;64362;45.620;4.920;2022-12-01T08:11:16;7.80;;;4.80;;
59734;SDS011;64362;45.620;4.920;2022-12-01T08:13:49;6.82;;;4.85;;
59734;SDS011;64362;45.620;4.920;2022-12-01T08:16:16;7.75;;;4.65;;
59734;SDS011;64362;45.620;4.920;2022-12-01T08:18:43;6.85;;;4.30;;
59734;SDS011;64362;45.620;4.920;2022-12-01T08:21:11;7.82;;;4.32;;
59734;SDS011;64362;45.620;4.920;2022-12-01T08:23:37;6.85;;;4.28;;
59734;SDS011;64362;45.620;4.920;2022-12-01T08:26:04;6.45;;;4.32;;
59734;SDS011;64362;45.620;4.920;2022-12-01T08:28:31;7.57;;;4.00;;
59734;SDS011;64362;45.620;4.920;2022-12-01T08:30:56;6.53;;;4.03;;
59734;SDS011;64362;45.620;4.920;2022-12-01T08:33:22;6.20;;;4.28;;
59734;SDS011;64362;45.620;4.920;2022-12-01T08:35:47;7.47;;;4.20;;
59734;SDS011;64362;45.620;4.920;2022-12-01T08:38:13;5.40;;;3.80;;
59734;SDS011;64362;45.620;4.920;2022-12-01T08:40:39;6.43;;;4.00;;
59734;SDS011;64362;45.620;4.920;2022-12-01T08:43:05;6.70;;;4.60;;
59734;SDS011;64362;45.620;4.920;2022-12-01T08:45:30;5.82;;;3.85;;
59734;SDS011;64362;45.620;4.920;2022-12-01T08:47:56;6.82;;;4.40;;
59734;SDS011;64362;45.620;4.920;2022-12-01T08:50:26;5.97;;;3.83;;
59734;SDS011;64362;45.620;4.920;2022-12-01T08:52:51;4.65;;;3.80;;
59734;SDS011;64362;45.620;4.920;2022-12-01T08:55:17;6.85;;;3.83;;
59734;SDS011;64362;45.620;4.920;2022-12-01T08:57:43;6.20;;;4.20;;
59734;SDS011;64362;45.620;4.920;2022-12-01T09:00:09;6.28;;;4.20;;
59734;SDS011;64362;45.620;4.920;2022-12-01T09:02:35;5.75;;;3.95;;
59734;SDS011;64362;45.620;4.920;2022-12-01T09:05:00;6.35;;;4.13;;
59734;SDS011;64362;45.620;4.920;2022-12-01T09:07:26;5.93;;;4.43;;
59734;SDS011;64362;45.620;4.920;2022-12-01T09:09:51;6.57;;;4.25;;
59734;SDS011;64362;45.620;4.920;2022-12-01T09:12:17;7.20;;;4.07;;
59734;SDS011;64362;45.620;4.920;2022-12-01T09:14:43;5.95;;;3.97;;
59734;SDS011;64362;45.620;4.920;2022-12-01T09:17:13;6.07;;;3.20;;
59734;SDS011;64362;45.620;4.920;2022-12-01T09:19:39;6.30;;;4.03;;
59734;SDS011;64362;45.620;4.920;2022-12-01T09:22:05;6.10;;;4.07;;
59734;SDS011;64362;45.620;4.920;2022-12-01T09:24:30;5.90;;;3.80;;
59734;SDS011;64362;45.620;4.920;2022-12-01T09:26:56;5.88;;;3.33;;
59734;SDS011;64362;45.620;4.920;2022-12-01T09:29:23;5.47;;;3.85;;
59734;SDS011;64362;45.620;4.920;2022-12-01T09:31:49;5.95;;;3.70;;
59734;SDS011;64362;45.620;4.920;2022-12-01T09:34:18;4.50;;;3.40;;
59734;SDS011;64362;45.620;4.920;2022-12-01T09:36:44;4.10;;;3.30;;
59734;SDS011;64362;45.620;4.920;2022-12-01T09:39:11;5.65;;;3.78;;
59734;SDS011;64362;45.620;4.920;2022-12-01T09:41:39;6.10;;;3.60;;
59734;SDS011;64362;45.620;4.920;2022-12-01T09:46:49;4.68;;;3.40;;
59734;SDS011;64362;45.620;4.920;2022-12-01T09:49:21;4.55;;;3.20;;
59734;SDS011;64362;45.620;4.920;2022-12-01T09:51:49;6.07;;;3.53;;
59734;SDS011;64362;45.620;4.920;2022-12-01T09:54:16;5.20;;;3.55;;
59734;SDS011;64362;45.620;4.920;2022-12-01T09:56:46;4.53;;;3.58;;
59734;SDS011;64362;45.620;4.920;2022-12-01T09:59:19;4.60;;;3.53;;
59734;SDS011;64362;45.620;4.920;2022-12-01T10:02:00;4.03;;;3.13;;
59734;SDS011;64362;45.620;4.920;2022-12-01T10:04:40;4.53;;;2.92;;
59734;SDS011;64362;45.620;4.920;2022-12-01T10:09:55;5.13;;;3.10;;
59734;SDS011;64362;45.620;4.920;2022-12-01T10:12:24;4.30;;;3.40;;
59734;SDS011;64362;45.620;4.920;2022-12-01T10:14:52;5.00;;;3.10;;
59734;SDS011;64362;45.620;4.920;2022-12-01T10:23:03;5.32;;;3.40;;
59734;SDS011;64362;45.620;4.920;2022-12-01T10:25:45;5.57;;;3.72;;
59734;SDS011;64362;45.620;4.920;2022-12-01T10:31:15;5.05;;;3.63;;
59734;SDS011;64362;45.620;4.920;2022-12-01T10:34:01;4.65;;;3.25;;
59734;SDS011;64362;45.620;4.920;2022-12-01T10:36:29;4.35;;;3.17;;
59734;SDS011;64362;45.620;4.920;2022-12-01T10:38:56;5.63;;;3.90;;
59734;SDS011;64362;45.620;4.920;2022-12-01T10:41:22;4.28;;;3.35;;
59734;SDS011;64362;45.620;4.920;2022-12-01T10:43:49;4.70;;;3.38;;
59734;SDS011;64362;45.620;4.920;2022-12-01T10:46:24;6.55;;;3.92;;
59734;SDS011;64362;45.620;4.920;2022-12-01T10:48:57;3.90;;;3.00;;
59734;SDS011;64362;45.620;4.920;2022-12-01T10:51:24;5.10;;;3.60;;
59734;SDS011;64362;45.620;4.920;2022-12-01T10:53:56;4.50;;;3.22;;
59734;SDS011;64362;45.620;4.920;2022-12-01T10:56:23;4.75;;;3.47;;
59734;SDS011;64362;45.620;4.920;2022-12-01T10:58:53;4.47;;;3.40;;
59734;SDS011;64362;45.620;4.920;2022-12-01T11:04:05;4.70;;;3.33;;
59734;SDS011;64362;45.620;4.920;2022-12-01T11:06:32;5.03;;;3.20;;
59734;SDS011;64362;45.620;4.920;2022-12-01T11:09:00;4.55;;;3.25;;
59734;SDS011;64362;45.620;4.920;2022-12-01T11:11:29;4.82;;;3.50;;
59734;SDS011;64362;45.620;4.920;2022-12-01T11:14:00;5.20;;;3.90;;
59734;SDS011;64362;45.620;4.920;2022-12-01T11:16:38;5.55;;;3.47;;
59734;SDS011;64362;45.620;4.920;2022-12-01T11:19:46;4.97;;;3.60;;
59734;SDS011;64362;45.620;4.920;2022-12-01T11:21:57;5.63;;;3.70;;
59734;SDS011;64362;45.620;4.920;2022-12-01T11:24:28;4.90;;;3.60;;
59734;SDS011;64362;45.620;4.920;2022-12-01T11:26:55;5.65;;;3.90;;
59734;SDS011;64362;45.620;4.920;2022-12-01T11:31:53;6.18;;;3.95;;
59734;SDS011;64362;45.620;4.920;2022-12-01T11:37:06;5.30;;;3.63;;
59734;SDS011;64362;45.620;4.920;2022-12-01T11:42:17;5.18;;;3.72;;
59734;SDS011;64362;45.620;4.920;2022-12-01T11:53:28;6.72;;;4.20;;
59734;SDS011;64362;45.620;4.920;2022-12-01T11:58:56;5.80;;;3.70;;
59734;SDS011;64362;45.620;4.920;2022-12-01T12:07:16;5.45;;;3.60;;
59734;SDS011;64362;45.620;4.920;2022-12-01T12:10:02;6.00;;;3.72;;
59734;SDS011;64362;45.620;4.920;2022-12-01T12:12:47;4.72;;;3.53;;
59734;SDS011;64362;45.620;4.920;2022-12-01T12:15:28;5.38;;;3.67;;
59734;SDS011;64362;45.620;4.920;2022-12-01T12:21:04;5.25;;;3.47;;
59734;SDS011;64362;45.620;4.920;2022-12-01T12:45:00;4.05;;;3.13;;
59734;SDS011;64362;45.620;4.920;2022-12-01T12:47:47;3.75;;;2.83;;
59734;SDS011;64362;45.620;4.920;2022-12-01T12:50:24;5.47;;;3.17;;
59734;SDS011;64362;45.620;4.920;2022-12-01T12:52:56;4.53;;;3.22;;
59734;SDS011;64362;45.620;4.920;2022-12-01T12:55:26;4.95;;;3.03;;
59734;SDS011;64362;45.620;4.920;2022-12-01T12:58:09;4.13;;;3.10;;
59734;SDS011;64362;45.620;4.920;2022-12-01T13:00:59;5.07;;;3.15;;
59734;SDS011;64362;45.620;4.920;2022-12-01T13:06:06;4.72;;;3.28;;
59734;SDS011;64362;45.620;4.920;2022-12-01T13:08:39;4.45;;;3.22;;
59734;SDS011;64362;45.620;4.920;2022-12-01T13:16:22;4.75;;;3.70;;
59734;SDS011;64362;45.620;4.920;2022-12-01T13:18:59;4.97;;;3.30;;
59734;SDS011;64362;45.620;4.920;2022-12-01T13:21:32;4.50;;;3.58;;
59734;SDS011;64362;45.620;4.920;2022-12-01T13:24:00;5.00;;;3.28;;
59734;SDS011;64362;45.620;4.920;2022-12-01T13:26:26;4.40;;;3.25;;
59734;SDS011;64362;45.620;4.920;2022-12-01T13:28:52;4.28;;;3.40;;
59734;SDS011;64362;45.620;4.920;2022-12-01T13:31:20;5.13;;;3.78;;
59734;SDS011;64362;45.620;4.920;2022-12-01T13:34:02;4.97;;;3.20;;
59734;SDS011;64362;45.620;4.920;2022-12-01T13:36:29;4.40;;;3.42;;
59734;SDS011;64362;45.620;4.920;2022-12-01T13:39:03;4.88;;;3.33;;
59734;SDS011;64362;45.620;4.920;2022-12-01T13:44:07;5.22;;;3.33;;
59734;SDS011;64362;45.620;4.920;2022-12-01T13:57:27;4.32;;;3.30;;
59734;SDS011;64362;45.620;4.920;2022-12-01T14:02:27;4.35;;;3.30;;
59734;SDS011;64362;45.620;4.920;2022-12-01T14:07:49;4.47;;;3.00;;
59734;SDS011;64362;45.620;4.920;2022-12-01T14:10:21;4.28;;;3.03;;
59734;SDS011;64362;45.620;4.920;2022-12-01T14:12:52;5.10;;;3.05;;
59734;SDS011;64362;45.620;4.920;2022-12-01T14:15:22;4.90;;;3.20;;
59734;SDS011;64362;45.620;4.920;2022-12-01T14:17:58;5.85;;;3.13;;
59734;SDS011;64362;45.620;4.920;2022-12-01T14:20:33;4.05;;;2.90;;
59734;SDS011;64362;45.620;4.920;2022-12-01T14:25:39;5.35;;;3.33;;
59734;SDS011;64362;45.620;4.920;2022-12-01T14:28:11;4.63;;;3.17;;
59734;SDS011;64362;45.620;4.920;2022-12-01T14:41:28;4.25;;;3.10;;
59734;SDS011;64362;45.620;4.920;2022-12-01T14:44:08;4.70;;;3.08;;
59734;SDS011;64362;45.620;4.920;2022-12-01T14:46:47;4.65;;;3.10;;
59734;SDS011;64362;45.620;4.920;2022-12-01T14:49:17;5.38;;;3.20;;
59734;SDS011;64362;45.620;4.920;2022-12-01T14:51:47;4.60;;;3.22;;
59734;SDS011;64362;45.620;4.920;2022-12-01T14:54:48;4.40;;;3.22;;
59734;SDS011;64362;45.620;4.920;2022-12-01T14:57:08;4.35;;;3.42;;
59734;SDS011;64362;45.620;4.920;2022-12-01T14:59:34;3.85;;;3.00;;
59734;SDS011;64362;45.620;4.920;2022-12-01T15:02:02;4.63;;;3.38;;
59734;SDS011;64362;45.620;4.920;2022-12-01T15:08:16;4.90;;;3.58;;
59734;SDS011;64362;45.620;4.920;2022-12-01T15:10:27;4.60;;;3.22;;
59734;SDS011;64362;45.620;4.920;2022-12-01T15:13:11;4.43;;;3.33;;
59734;SDS011;64362;45.620;4.920;2022-12-01T15:15:48;5.20;;;3.35;;
59734;SDS011;64362;45.620;4.920;2022-12-01T15:18:22;3.20;;;2.85;;
59734;SDS011;64362;45.620;4.920;2022-12-01T15:20:54;4.63;;;3.40;;
59734;SDS011;64362;45.620;4.920;2022-12-01T15:23:22;4.68;;;3.28;;
59734;SDS011;64362;45.620;4.920;2022-12-01T15:25:48;4.25;;;3.15;;
59734;SDS011;64362;45.620;4.920;2022-12-01T15:28:15;5.10;;;3.20;;
59734;SDS011;64362;45.620;4.920;2022-12-01T15:30:52;4.68;;;3.38;;
59734;SDS011;64362;45.620;4.920;2022-12-01T15:35:43;4.15;;;3.13;;
59734;SDS011;64362;45.620;4.920;2022-12-01T15:38:14;3.72;;;3.28;;
59734;SDS011;64362;45.620;4.920;2022-12-01T15:40:43;3.92;;;3.00;;
59734;SDS011;64362;45.620;4.920;2022-12-01T15:43:15;4.35;;;3.03;;
59734;SDS011;64362;45.620;4.920;2022-12-01T15:45:46;4.37;;;3.07;;
59734;SDS011;64362;45.620;4.920;2022-12-01T15:48:15;3.90;;;2.90;;
59734;SDS011;64362;45.620;4.920;2022-12-01T15:50:42;3.95;;;2.90;;
59734;SDS011;64362;45.620;4.920;2022-12-01T15:55:50;4.35;;;3.00;;
59734;SDS011;64362;45.620;4.920;2022-12-01T15:58:24;3.97;;;2.97;;
59734;SDS011;64362;45.620;4.920;2022-12-01T16:03:30;4.43;;;3.25;;
59734;SDS011;64362;45.620;4.920;2022-12-01T16:05:56;4.20;;;2.88;;
59734;SDS011;64362;45.620;4.920;2022-12-01T16:08:22;4.05;;;2.80;;
59734;SDS011;64362;45.620;4.920;2022-12-01T16:13:38;4.20;;;2.97;;
59734;SDS011;64362;45.620;4.920;2022-12-01T16:18:55;4.85;;;3.10;;
59734;SDS011;64362;45.620;4.920;2022-12-01T16:21:22;4.75;;;2.88;;
59734;SDS011;64362;45.620;4.920;2022-12-01T16:23:47;4.88;;;3.22;;
59734;SDS011;64362;45.620;4.920;2022-12-01T16:26:13;4.20;;;2.67;;
59734;SDS011;64362;45.620;4.920;2022-12-01T16:28:39;4.38;;;3.00;;
59734;SDS011;64362;45.620;4.920;2022-12-01T16:31:05;3.33;;;2.40;;
59734;SDS011;64362;45.620;4.920;2022-12-01T16:33:34;3.58;;;2.65;;
59734;SDS011;64362;45.620;4.920;2022-12-01T16:36:01;3.72;;;2.83;;
59734;SDS011;64362;45.620;4.920;2022-12-01T16:38:27;3.53;;;2.97;;
59734;SDS011;64362;45.620;4.920;2022-12-01T16:40:54;3.88;;;2.85;;
59734;SDS011;64362;45.620;4.920;2022-12-01T16:43:21;4.22;;;3.00;;
59734;SDS011;64362;45.620;4.920;2022-12-01T16:45:48;3.58;;;2.63;;
59734;SDS011;64362;45.620;4.920;2022-12-01T16:48:20;4.78;;;3.22;;
59734;SDS011;64362;45.620;4.920;2022-12-01T16:50:47;3.97;;;2.78;;
59734;SDS011;64362;45.620;4.920;2022-12-01T16:53:13;5.88;;;3.25;;
59734;SDS011;64362;45.620;4.920;2022-12-01T16:55:58;4.20;;;3.05;;
59734;SDS011;64362;45.620;4.920;2022-12-01T16:58:24;4.35;;;2.80;;
59734;SDS011;64362;45.620;4.920;2022-12-01T17:00:50;4.70;;;2.83;;
59734;SDS011;64362;45.620;4.920;2022-12-01T17:03:20;4.13;;;2.75;;
59734;SDS011;64362;45.620;4.920;2022-12-01T17:05:50;4.55;;;3.60;;
59734;SDS011;64362;45.620;4.920;2022-12-01T17:08:16;3.60;;;2.55;;
59734;SDS011;64362;45.620;4.920;2022-12-01T17:10:43;3.50;;;2.50;;
59734;SDS011;64362;45.620;4.920;2022-12-01T17:13:10;4.13;;;2.90;;
59734;SDS011;64362;45.620;4.920;2022-12-01T17:15:39;5.03;;;3.00;;
59734;SDS011;64362;45.620;4.920;2022-12-01T17:18:09;4.95;;;3.00;;
59734;SDS011;64362;45.620;4.920;2022-12-01T17:20:34;5.22;;;3.30;;
59734;SDS011;64362;45.620;4.920;2022-12-01T17:23:00;7.22;;;3.95;;
59734;SDS011;64362;45.620;4.920;2022-12-01T17:25:26;4.38;;;3.28;;
59734;SDS011;64362;45.620;4.920;2022-12-01T17:27:51;5.28;;;3.13;;
59734;SDS011;64362;45.620;4.920;2022-12-01T17:30:17;5.50;;;3.03;;
59734;SDS011;64362;45.620;4.920;2022-12-01T17:32:43;5.25;;;3.35;;
59734;SDS011;64362;45.620;4.920;2022-12-01T17:35:10;5.25;;;3.15;;
59734;SDS011;64362;45.620;4.920;2022-12-01T17:37:36;6.22;;;3.10;;